createdAt,value
2022-12-25T00:00:44.429Z,75.78
2022-12-25T00:02:47.113Z,76.02
2022-12-25T00:04:49.824Z,75.41
2022-12-25T00:06:52.454Z,75.49
2022-12-25T00:08:56.428Z,75.34
2022-12-25T00:11:00.593Z,75.83
2022-12-25T00:13:03.164Z,74.96
2022-12-25T00:15:06.346Z,74.89
2022-12-25T00:17:08.919Z,75.27
2022-12-25T00:19:11.550Z,75.37
2022-12-25T00:21:14.988Z,75.17
2022-12-25T00:23:17.597Z,75.34
2022-12-25T00:25:21.482Z,75.11
2022-12-25T00:27:24.013Z,74.20
2022-12-25T00:29:26.605Z,74.98
2022-12-25T00:31:29.383Z,75.34
2022-12-25T00:33:34.315Z,75.24
2022-12-25T00:35:36.938Z,75.32
2022-12-25T00:37:39.503Z,74.99
2022-12-25T00:39:42.074Z,75.22
2022-12-25T00:42:03.621Z,75.05
2022-12-25T00:44:06.448Z,75.50
2022-12-25T00:46:11.085Z,75.41
2022-12-25T00:48:13.770Z,75.82
2022-12-25T00:50:16.316Z,75.72
2022-12-25T00:52:18.957Z,75.41
2022-12-25T00:54:22.227Z,75.49
2022-12-25T00:56:25.488Z,75.61
2022-12-25T00:58:30.983Z,75.33
2022-12-25T01:00:33.593Z,75.14
2022-12-25T01:02:36.403Z,75.46
2022-12-25T01:04:39.204Z,75.26
2022-12-25T01:06:42.213Z,75.45
2022-12-25T01:09:05.392Z,75.15
2022-12-25T01:11:08.828Z,75.09
2022-12-25T01:13:11.377Z,75.31
2022-12-25T01:15:15.473Z,75.28
2022-12-25T01:17:18.085Z,74.65
2022-12-25T01:19:20.699Z,74.60
2022-12-25T01:21:23.889Z,74.62
2022-12-25T01:23:26.465Z,75.11
2022-12-25T01:25:29.071Z,74.98
2022-12-25T01:27:32.955Z,74.54
2022-12-25T01:29:35.579Z,75.07
2022-12-25T01:31:39.545Z,75.08
2022-12-25T01:33:43.346Z,75.13
2022-12-25T01:35:45.986Z,75.46
2022-12-25T01:37:48.578Z,75.45
2022-12-25T01:39:51.218Z,75.56
2022-12-25T01:41:53.780Z,75.32
2022-12-25T01:44:03.621Z,74.74
2022-12-25T01:46:06.233Z,75.09
2022-12-25T01:48:15.743Z,75.25
2022-12-25T01:50:18.572Z,75.07
2022-12-25T01:52:24.787Z,75.10
2022-12-25T01:54:31.085Z,75.19
2022-12-25T01:56:35.538Z,75.21
2022-12-25T01:58:38.182Z,74.91
2022-12-25T02:00:40.831Z,75.32
2022-12-25T02:02:45.438Z,74.92
2022-12-25T02:04:54.783Z,75.12
2022-12-25T02:06:57.435Z,74.91
2022-12-25T02:09:00.219Z,74.94
2022-12-25T02:11:02.797Z,74.98
2022-12-25T02:13:05.986Z,75.09
2022-12-25T02:15:13.107Z,75.06
2022-12-25T02:17:24.896Z,75.09
2022-12-25T02:19:37.930Z,75.19
2022-12-25T02:21:56.151Z,74.99
2022-12-25T02:24:22.990Z,75.12
2022-12-25T02:26:48.503Z,74.72
2022-12-25T02:29:00.037Z,74.89
2022-12-25T02:31:10.252Z,75.31
2022-12-25T02:33:31.354Z,74.87
2022-12-25T02:35:33.995Z,75.45
2022-12-25T02:37:41.743Z,75.44
2022-12-25T02:40:00.691Z,75.19
2022-12-25T02:42:07.916Z,75.11
2022-12-25T02:44:35.018Z,75.50
2022-12-25T02:46:55.604Z,75.43
2022-12-25T02:49:19.542Z,75.27
2022-12-25T02:51:43.382Z,75.81
2022-12-25T02:54:05.940Z,75.96
2022-12-25T02:56:26.014Z,75.61
2022-12-25T02:58:47.078Z,75.78
2022-12-25T03:01:14.468Z,75.58
2022-12-25T03:03:36.218Z,76.15
2022-12-25T03:05:59.067Z,76.21
2022-12-25T03:08:05.772Z,76.14
2022-12-25T03:10:28.364Z,76.41
2022-12-25T03:12:39.535Z,76.59
2022-12-25T03:14:59.645Z,76.61
2022-12-25T03:17:03.612Z,76.14
2022-12-25T03:19:26.973Z,76.33
2022-12-25T03:21:46.979Z,76.11
2022-12-25T03:24:17.126Z,75.37
2022-12-25T03:26:37.215Z,75.67
2022-12-25T03:28:39.777Z,75.37
2022-12-25T03:31:04.147Z,76.01
2022-12-25T03:33:43.737Z,75.80
2022-12-25T03:35:46.915Z,76.12
2022-12-25T03:38:22.342Z,74.95
2022-12-25T03:40:50.383Z,75.56
2022-12-25T03:43:15.733Z,75.40
2022-12-25T03:45:40.977Z,75.81
2022-12-25T03:48:04.696Z,75.66
2022-12-25T03:50:31.296Z,75.99
2022-12-25T03:52:53.293Z,76.27
2022-12-25T03:55:15.199Z,76.45
2022-12-25T03:57:35.355Z,76.48
2022-12-25T03:59:55.792Z,76.64
2022-12-25T04:02:15.938Z,76.70
2022-12-25T04:04:32.537Z,77.27
2022-12-25T04:06:54.140Z,77.13
2022-12-25T04:09:14.412Z,77.02
2022-12-25T04:11:34.800Z,76.93
2022-12-25T04:13:54.874Z,77.07
2022-12-25T04:16:15.344Z,77.30
2022-12-25T04:18:35.543Z,76.84
2022-12-25T04:21:10.438Z,77.30
2022-12-25T04:23:32.180Z,76.94
2022-12-25T04:25:52.652Z,76.56
2022-12-25T04:28:13.259Z,76.84
2022-12-25T04:30:33.570Z,76.99
2022-12-25T04:32:53.680Z,76.88
2022-12-25T04:35:14.028Z,77.40
2022-12-25T04:37:16.648Z,77.46
2022-12-25T04:39:20.760Z,77.41
2022-12-25T04:41:23.309Z,77.47
2022-12-25T04:43:26.041Z,77.68
2022-12-25T04:45:28.619Z,77.71
2022-12-25T04:47:31.217Z,78.16
2022-12-25T04:49:33.854Z,77.87
2022-12-25T04:51:37.812Z,78.26
2022-12-25T04:53:40.443Z,78.30
2022-12-25T04:55:44.405Z,77.58
2022-12-25T04:57:46.976Z,77.72
2022-12-25T04:59:49.566Z,76.77
2022-12-25T05:01:52.179Z,77.26
2022-12-25T05:03:54.908Z,77.05
2022-12-25T05:05:57.668Z,75.92
2022-12-25T05:08:00.266Z,77.40
2022-12-25T05:10:02.877Z,77.55
2022-12-25T05:12:06.963Z,78.19
2022-12-25T05:14:09.509Z,78.38
2022-12-25T05:16:17.756Z,78.63
2022-12-25T05:18:20.495Z,78.35
2022-12-25T05:20:23.053Z,78.06
2022-12-25T05:22:25.662Z,78.54
2022-12-25T05:24:28.784Z,78.65
2022-12-25T05:26:32.692Z,78.84
2022-12-25T05:28:36.802Z,78.82
2022-12-25T05:30:39.391Z,78.72
2022-12-25T05:32:41.957Z,78.16
2022-12-25T05:34:44.488Z,78.95
2022-12-25T05:36:47.088Z,78.93
2022-12-25T05:38:49.660Z,79.18
2022-12-25T05:40:52.866Z,78.82
2022-12-25T05:42:55.441Z,79.44
2022-12-25T05:44:59.339Z,79.62
2022-12-25T05:47:01.979Z,79.37
2022-12-25T05:49:05.709Z,79.35
2022-12-25T05:51:10.086Z,79.43
2022-12-25T05:53:14.892Z,79.15
2022-12-25T05:55:20.017Z,79.36
2022-12-25T05:57:25.638Z,78.94
2022-12-25T05:59:30.034Z,78.92
2022-12-25T06:01:33.989Z,78.81
2022-12-25T06:03:36.762Z,79.18
2022-12-25T06:05:39.795Z,79.12
2022-12-25T06:07:42.484Z,79.14
2022-12-25T06:09:45.072Z,79.47
2022-12-25T06:11:47.728Z,79.15
2022-12-25T06:13:51.174Z,79.45
2022-12-25T06:15:53.815Z,79.81
2022-12-25T06:18:00.395Z,79.42
2022-12-25T06:20:03.709Z,79.56
2022-12-25T06:22:06.286Z,79.55
2022-12-25T06:24:09.182Z,79.02
2022-12-25T06:26:14.646Z,79.21
2022-12-25T06:28:17.462Z,79.34
2022-12-25T06:30:20.175Z,79.40
2022-12-25T06:32:22.777Z,79.41
2022-12-25T06:34:27.133Z,79.73
2022-12-25T06:36:30.282Z,79.47
2022-12-25T06:38:32.882Z,79.36
2022-12-25T06:40:35.695Z,79.77
2022-12-25T06:42:38.326Z,79.32
2022-12-25T06:44:40.881Z,79.81
2022-12-25T06:46:43.461Z,79.83
2022-12-25T06:48:49.723Z,79.35
2022-12-25T06:50:53.910Z,79.63
2022-12-25T06:52:57.266Z,79.12
2022-12-25T06:54:59.883Z,79.12
2022-12-25T06:57:02.467Z,79.18
2022-12-25T06:59:08.051Z,79.52
2022-12-25T07:01:15.463Z,79.10
2022-12-25T07:03:24.299Z,78.26
2022-12-25T07:05:26.919Z,78.41
2022-12-25T07:07:30.807Z,78.56
2022-12-25T07:09:33.670Z,78.85
2022-12-25T07:11:36.633Z,79.27
2022-12-25T07:13:39.267Z,79.53
2022-12-25T07:15:41.786Z,79.90
2022-12-25T07:17:44.551Z,79.82
2022-12-25T07:19:47.518Z,79.96
2022-12-25T07:21:50.130Z,80.05
2022-12-25T07:23:54.147Z,79.82
2022-12-25T07:25:56.822Z,79.94
2022-12-25T07:27:59.526Z,79.87
2022-12-25T07:30:02.113Z,79.47
2022-12-25T07:32:05.162Z,79.69
2022-12-25T07:34:07.824Z,79.59
2022-12-25T07:36:13.035Z,79.95
2022-12-25T07:38:15.857Z,80.32
2022-12-25T07:40:19.883Z,80.32
2022-12-25T07:42:25.372Z,80.65
2022-12-25T07:44:28.168Z,80.41
2022-12-25T07:46:30.753Z,80.80
2022-12-25T07:48:33.440Z,80.71
2022-12-25T07:50:36.093Z,80.57
2022-12-25T07:52:43.385Z,80.33
2022-12-25T07:54:46.139Z,80.39
2022-12-25T07:56:53.216Z,79.08
2022-12-25T07:58:55.767Z,79.27
2022-12-25T08:01:04.658Z,79.09
2022-12-25T08:03:08.037Z,79.07
2022-12-25T08:05:11.025Z,79.26
2022-12-25T08:07:13.609Z,79.18
2022-12-25T08:09:16.230Z,79.26
2022-12-25T08:11:18.827Z,79.07
2022-12-25T08:13:22.816Z,79.23
2022-12-25T08:15:25.366Z,79.11
2022-12-25T08:17:27.968Z,79.04
2022-12-25T08:19:30.532Z,79.58
2022-12-25T08:21:33.130Z,79.96
2022-12-25T08:23:36.319Z,79.92
2022-12-25T08:25:38.890Z,79.92
2022-12-25T08:27:41.481Z,79.81
2022-12-25T08:29:45.984Z,79.90
2022-12-25T08:31:48.574Z,80.00
2022-12-25T08:33:53.175Z,79.87
2022-12-25T08:35:56.938Z,79.73
2022-12-25T08:37:59.481Z,79.89
2022-12-25T08:40:02.086Z,79.93
2022-12-25T08:42:04.890Z,80.16
2022-12-25T08:44:07.810Z,79.82
2022-12-25T08:46:12.226Z,80.08
2022-12-25T08:48:15.029Z,79.87
2022-12-25T08:50:17.577Z,80.06
2022-12-25T08:52:20.183Z,80.24
2022-12-25T08:54:22.861Z,79.93
2022-12-25T08:56:25.430Z,79.90
2022-12-25T08:58:28.833Z,80.13
2022-12-25T09:00:31.465Z,80.02
2022-12-25T09:02:36.690Z,80.21
2022-12-25T09:04:39.459Z,80.11
2022-12-25T09:06:42.056Z,80.08
2022-12-25T09:08:49.149Z,79.98
2022-12-25T09:10:52.360Z,80.59
2022-12-25T09:12:54.916Z,80.29
2022-12-25T09:14:57.495Z,80.55
2022-12-25T09:17:00.092Z,80.59
2022-12-25T09:19:06.318Z,80.55
2022-12-25T09:21:11.840Z,80.41
2022-12-25T09:23:14.602Z,80.37
2022-12-25T09:25:17.378Z,80.46
2022-12-25T09:27:20.067Z,80.65
2022-12-25T09:29:22.672Z,80.32
2022-12-25T09:31:25.432Z,80.17
2022-12-25T09:33:28.502Z,80.26
2022-12-25T09:35:32.438Z,80.46
2022-12-25T09:37:35.109Z,80.29
2022-12-25T09:39:43.903Z,80.31
2022-12-25T09:41:56.606Z,80.24
2022-12-25T09:44:03.081Z,80.61
2022-12-25T09:46:10.400Z,80.45
2022-12-25T09:48:16.704Z,80.20
2022-12-25T09:50:24.725Z,80.37
2022-12-25T09:52:37.495Z,80.33
2022-12-25T09:54:47.118Z,79.79
2022-12-25T09:56:49.754Z,80.41
2022-12-25T09:58:52.758Z,79.59
2022-12-25T10:01:05.027Z,80.08
2022-12-25T10:03:19.072Z,79.54
2022-12-25T10:05:34.607Z,79.90
2022-12-25T10:07:46.683Z,80.16
2022-12-25T10:10:03.688Z,80.01
2022-12-25T10:12:23.995Z,80.06
2022-12-25T10:14:35.987Z,80.09
2022-12-25T10:16:48.133Z,80.00
2022-12-25T10:19:13.848Z,79.67
2022-12-25T10:21:19.340Z,80.29
2022-12-25T10:23:27.213Z,80.62
2022-12-25T10:25:30.113Z,80.64
2022-12-25T10:27:35.028Z,80.70
2022-12-25T10:29:38.568Z,80.22
2022-12-25T10:31:44.165Z,79.50
2022-12-25T10:33:47.074Z,79.13
2022-12-25T10:35:50.206Z,79.84
2022-12-25T10:37:58.496Z,79.98
2022-12-25T10:40:02.660Z,79.85
2022-12-25T10:42:22.439Z,79.86
2022-12-25T10:44:25.376Z,79.93
2022-12-25T10:46:30.302Z,80.10
2022-12-25T10:48:34.190Z,79.54
2022-12-25T10:50:43.988Z,79.69
2022-12-25T10:52:57.659Z,79.70
2022-12-25T10:55:10.953Z,80.08
2022-12-25T10:57:16.454Z,79.04
2022-12-25T10:59:19.079Z,79.07
2022-12-25T11:01:21.967Z,79.39
2022-12-25T11:03:27.160Z,78.73
2022-12-25T11:05:35.030Z,79.13
2022-12-25T11:07:50.767Z,79.04
2022-12-25T11:09:59.290Z,78.89
2022-12-25T11:12:07.735Z,78.50
2022-12-25T11:14:18.474Z,77.91
2022-12-25T11:16:29.886Z,78.17
2022-12-25T11:18:35.840Z,78.57
2022-12-25T11:20:41.292Z,78.69
2022-12-25T11:22:50.343Z,78.84
2022-12-25T11:24:52.965Z,78.88
2022-12-25T11:26:57.874Z,78.53
2022-12-25T11:29:01.871Z,78.69
2022-12-25T11:31:09.355Z,78.64
2022-12-25T11:33:14.990Z,78.68
2022-12-25T11:35:19.546Z,78.95
2022-12-25T11:37:26.551Z,79.08
2022-12-25T11:39:31.881Z,78.66
2022-12-25T11:41:37.109Z,78.37
2022-12-25T11:43:47.701Z,78.44
2022-12-25T11:45:56.158Z,77.92
2022-12-25T11:48:02.049Z,77.92
2022-12-25T11:50:08.970Z,78.06
2022-12-25T11:52:14.592Z,77.79
2022-12-25T11:54:23.274Z,78.02
2022-12-25T11:56:28.123Z,77.87
2022-12-25T11:58:34.451Z,77.86
2022-12-25T12:00:37.713Z,78.10
2022-12-25T12:02:46.956Z,78.20
2022-12-25T12:04:56.323Z,78.14
2022-12-25T12:07:05.445Z,78.07
2022-12-25T12:09:27.392Z,78.27
2022-12-25T12:11:33.677Z,78.51
2022-12-25T12:13:44.845Z,78.49
2022-12-25T12:15:49.619Z,78.65
2022-12-25T12:17:53.576Z,78.40
2022-12-25T12:19:56.180Z,78.35
2022-12-25T12:22:02.139Z,78.33
2022-12-25T12:24:07.935Z,78.32
2022-12-25T12:26:19.951Z,78.17
2022-12-25T12:28:25.518Z,78.36
2022-12-25T12:30:31.319Z,78.24
2022-12-25T12:32:39.037Z,78.15
2022-12-25T12:34:48.026Z,78.26
2022-12-25T12:36:51.937Z,78.25
2022-12-25T12:38:56.475Z,78.34
2022-12-25T12:41:01.658Z,78.06
2022-12-25T12:43:05.949Z,77.75
2022-12-25T12:45:11.681Z,77.77
2022-12-25T12:47:30.605Z,77.74
2022-12-25T12:49:33.704Z,77.82
2022-12-25T12:51:38.863Z,76.34
2022-12-25T12:53:42.560Z,74.94
2022-12-25T12:55:45.265Z,71.67
2022-12-25T12:58:01.818Z,71.56
2022-12-25T13:00:10.364Z,71.06
2022-12-25T13:02:48.541Z,70.04
2022-12-25T13:05:02.921Z,69.67
2022-12-25T13:07:18.537Z,69.35
2022-12-25T13:09:34.001Z,68.85
2022-12-25T13:11:42.501Z,68.22
2022-12-25T13:13:46.712Z,67.60
2022-12-25T13:15:51.665Z,68.04
2022-12-25T13:17:57.141Z,68.26
2022-12-25T13:20:02.259Z,68.02
2022-12-25T13:22:07.987Z,67.03
2022-12-25T13:24:22.277Z,67.41
2022-12-25T13:26:25.011Z,67.50
2022-12-25T13:28:29.460Z,67.87
2022-12-25T13:30:31.994Z,67.84
2022-12-25T13:32:34.807Z,68.22
2022-12-25T13:34:39.445Z,68.38
2022-12-25T13:36:42.060Z,68.78
2022-12-25T13:38:47.737Z,68.95
2022-12-25T13:41:25.938Z,68.79
2022-12-25T13:43:28.403Z,68.96
2022-12-25T13:45:34.103Z,68.40
2022-12-25T13:47:38.211Z,68.15
2022-12-25T13:49:40.832Z,68.17
2022-12-25T13:51:43.718Z,67.85
2022-12-25T13:53:47.645Z,67.39
2022-12-25T13:55:53.843Z,67.35
2022-12-25T13:57:59.116Z,66.88
2022-12-25T14:00:02.398Z,65.22
2022-12-25T14:02:05.768Z,64.87
2022-12-25T14:04:15.826Z,64.38
2022-12-25T14:06:21.492Z,64.23
2022-12-25T14:08:27.215Z,64.33
2022-12-25T14:10:36.518Z,63.84
2022-12-25T14:12:39.157Z,63.83
2022-12-25T14:14:43.991Z,62.86
2022-12-25T14:16:49.486Z,63.37
2022-12-25T14:18:54.072Z,63.41
2022-12-25T14:21:00.701Z,63.78
2022-12-25T14:23:03.414Z,63.77
2022-12-25T14:25:15.987Z,64.13
2022-12-25T14:27:23.227Z,64.39
2022-12-25T14:29:28.611Z,64.77
2022-12-25T14:31:32.371Z,65.22
2022-12-25T14:33:39.515Z,65.74
2022-12-25T14:35:42.806Z,66.06
2022-12-25T14:37:45.597Z,66.12
2022-12-25T14:39:56.744Z,66.11
2022-12-25T14:41:59.622Z,66.01
2022-12-25T14:44:06.707Z,65.36
2022-12-25T14:46:09.354Z,65.54
2022-12-25T14:48:24.491Z,65.19
2022-12-25T14:50:31.460Z,65.37
2022-12-25T14:52:45.383Z,65.43
2022-12-25T14:54:50.857Z,65.58
2022-12-25T14:56:56.128Z,66.07
2022-12-25T14:59:00.762Z,66.43
2022-12-25T15:01:06.605Z,66.82
2022-12-25T15:03:22.041Z,66.96
2022-12-25T15:05:28.128Z,67.09
2022-12-25T15:07:32.241Z,66.88
2022-12-25T15:09:35.981Z,66.79
2022-12-25T15:11:38.697Z,67.76
2022-12-25T15:13:41.251Z,68.17
2022-12-25T15:15:51.071Z,68.91
2022-12-25T15:17:55.578Z,69.56
2022-12-25T15:20:00.772Z,70.06
2022-12-25T15:22:04.144Z,70.41
2022-12-25T15:24:07.327Z,70.74
2022-12-25T15:26:13.574Z,71.01
2022-12-25T15:28:16.149Z,71.37
2022-12-25T15:30:18.799Z,71.45
2022-12-25T15:32:24.106Z,71.38
2022-12-25T15:34:29.720Z,71.04
2022-12-25T15:36:33.839Z,70.85
2022-12-25T15:38:38.890Z,71.23
2022-12-25T15:40:42.407Z,71.93
2022-12-25T15:42:45.715Z,72.06
2022-12-25T15:44:48.516Z,72.35
2022-12-25T15:46:51.434Z,72.62
2022-12-25T15:48:54.069Z,72.80
2022-12-25T15:50:58.025Z,72.59
2022-12-25T15:53:00.610Z,72.66
2022-12-25T15:55:03.256Z,72.62
2022-12-25T15:57:07.927Z,72.69
2022-12-25T15:59:12.344Z,72.51
2022-12-25T16:01:16.281Z,72.17
2022-12-25T16:03:19.065Z,72.04
2022-12-25T16:05:22.955Z,71.60
2022-12-25T16:07:27.678Z,70.71
2022-12-25T16:09:30.249Z,70.18
2022-12-25T16:11:32.957Z,69.06
2022-12-25T16:13:36.468Z,68.67
2022-12-25T16:15:39.105Z,68.08
2022-12-25T16:17:42.053Z,68.23
2022-12-25T16:19:45.402Z,68.31
2022-12-25T16:21:48.296Z,68.37
2022-12-25T16:23:52.254Z,68.25
2022-12-25T16:25:54.794Z,68.33
2022-12-25T16:27:57.465Z,68.21
2022-12-25T16:30:00.033Z,68.31
2022-12-25T16:32:02.805Z,67.25
2022-12-25T16:34:07.248Z,66.80
2022-12-25T16:36:10.036Z,66.73
2022-12-25T16:38:13.104Z,66.67
2022-12-25T16:40:18.667Z,66.34
2022-12-25T16:42:21.283Z,66.62
2022-12-25T16:44:23.956Z,66.33
2022-12-25T16:46:26.860Z,66.46
2022-12-25T16:48:30.153Z,66.36
2022-12-25T16:50:32.740Z,67.03
2022-12-25T16:52:35.994Z,68.38
2022-12-25T16:54:38.591Z,69.60
2022-12-25T16:56:42.528Z,70.24
2022-12-25T16:58:49.343Z,70.98
2022-12-25T17:00:51.929Z,71.63
2022-12-25T17:02:55.908Z,71.83
2022-12-25T17:05:00.422Z,72.32
2022-12-25T17:07:03.018Z,72.56
2022-12-25T17:09:05.781Z,72.72
2022-12-25T17:11:08.897Z,73.26
2022-12-25T17:13:12.808Z,73.36
2022-12-25T17:15:15.558Z,73.85
2022-12-25T17:17:18.142Z,73.85
2022-12-25T17:19:22.464Z,73.59
2022-12-25T17:21:26.352Z,73.60
2022-12-25T17:23:29.007Z,73.75
2022-12-25T17:25:31.640Z,73.74
2022-12-25T17:27:34.246Z,73.99
2022-12-25T17:29:39.701Z,73.09
2022-12-25T17:31:42.711Z,71.67
2022-12-25T17:33:45.664Z,69.40
2022-12-25T17:35:48.203Z,68.33
2022-12-25T17:37:51.083Z,68.62
2022-12-25T17:39:53.665Z,68.43
2022-12-25T17:41:56.218Z,68.11
2022-12-25T17:43:59.636Z,67.70
2022-12-25T17:46:06.947Z,67.90
2022-12-25T17:48:09.646Z,68.02
2022-12-25T17:50:12.291Z,67.89
2022-12-25T17:52:14.913Z,68.45
2022-12-25T17:54:17.492Z,68.26
2022-12-25T17:56:20.910Z,68.56
2022-12-25T17:58:23.505Z,68.60
2022-12-25T18:00:26.119Z,68.35
2022-12-25T18:02:30.882Z,68.32
2022-12-25T18:04:33.766Z,68.52
2022-12-25T18:06:37.872Z,68.46
2022-12-25T18:08:40.807Z,68.65
2022-12-25T18:10:44.684Z,68.55
2022-12-25T18:12:47.273Z,68.67
2022-12-25T18:14:49.863Z,68.74
2022-12-25T18:16:52.597Z,69.12
2022-12-25T18:18:56.570Z,69.03
2022-12-25T18:20:59.556Z,69.10
2022-12-25T18:23:02.950Z,69.07
2022-12-25T18:25:06.543Z,69.22
2022-12-25T18:27:09.439Z,69.32
2022-12-25T18:29:12.174Z,69.01
2022-12-25T18:31:17.299Z,69.41
2022-12-25T18:33:19.927Z,69.36
2022-12-25T18:35:28.974Z,69.34
2022-12-25T18:37:34.478Z,69.33
2022-12-25T18:39:42.201Z,69.14
2022-12-25T18:41:58.838Z,69.29
2022-12-25T18:44:01.417Z,69.26
2022-12-25T18:46:06.405Z,69.10
2022-12-25T18:48:10.339Z,68.70
2022-12-25T18:50:13.739Z,68.92
2022-12-25T18:52:47.970Z,68.85
2022-12-25T18:54:40.221Z,68.70
2022-12-25T18:56:42.831Z,68.78
2022-12-25T18:58:46.497Z,68.78
2022-12-25T19:00:50.304Z,68.86
2022-12-25T19:02:57.299Z,68.92
2022-12-25T19:04:59.987Z,69.41
2022-12-25T19:07:02.573Z,69.00
2022-12-25T19:09:09.526Z,69.47
2022-12-25T19:11:12.192Z,69.66
2022-12-25T19:13:14.774Z,69.71
2022-12-25T19:15:17.580Z,69.73
2022-12-25T19:17:20.267Z,69.65
2022-12-25T19:19:23.563Z,69.58
2022-12-25T19:21:26.192Z,69.87
2022-12-25T19:23:28.773Z,69.58
2022-12-25T19:25:32.760Z,69.86
2022-12-25T19:27:35.604Z,69.49
2022-12-25T19:29:38.154Z,69.60
2022-12-25T19:31:41.767Z,69.07
2022-12-25T19:33:44.408Z,69.74
2022-12-25T19:35:47.457Z,69.06
2022-12-25T19:37:50.006Z,69.50
2022-12-25T19:39:52.650Z,69.26
2022-12-25T19:41:56.579Z,69.10
2022-12-25T19:43:59.316Z,68.94
2022-12-25T19:46:02.430Z,68.80
2022-12-25T19:48:05.785Z,68.85
2022-12-25T19:50:09.112Z,69.15
2022-12-25T19:52:13.273Z,68.89
2022-12-25T19:54:18.865Z,68.41
2022-12-25T19:56:21.420Z,68.79
2022-12-25T19:58:25.545Z,68.28
2022-12-25T20:00:28.296Z,68.25
2022-12-25T20:02:30.919Z,68.06
2022-12-25T20:04:35.701Z,68.01
2022-12-25T20:06:39.864Z,68.09
2022-12-25T20:08:42.434Z,68.01
2022-12-25T20:10:45.782Z,67.70
2022-12-25T20:12:48.357Z,68.10
2022-12-25T20:14:52.301Z,67.98
2022-12-25T20:16:54.905Z,67.65
2022-12-25T20:18:58.736Z,68.08
2022-12-25T20:21:02.424Z,67.95
2022-12-25T20:23:05.361Z,67.80
2022-12-25T20:25:11.145Z,68.00
2022-12-25T20:27:13.703Z,67.87
2022-12-25T20:29:16.258Z,68.48
2022-12-25T20:31:22.872Z,68.01
2022-12-25T20:33:25.749Z,68.47
2022-12-25T20:35:28.348Z,68.59
2022-12-25T20:37:30.895Z,68.64
2022-12-25T20:39:33.843Z,68.46
2022-12-25T20:41:36.621Z,68.65
2022-12-25T20:43:45.422Z,68.60
2022-12-25T20:45:52.572Z,67.85
2022-12-25T20:47:56.612Z,68.50
2022-12-25T20:49:59.191Z,68.50
2022-12-25T20:52:05.504Z,68.76
2022-12-25T20:54:10.394Z,68.13
2022-12-25T20:56:14.712Z,68.47
2022-12-25T20:58:18.236Z,68.21
2022-12-25T21:00:20.866Z,68.30
2022-12-25T21:02:35.043Z,68.59
2022-12-25T21:04:40.388Z,68.49
2022-12-25T21:06:42.967Z,69.08
2022-12-25T21:08:45.695Z,69.08
2022-12-25T21:10:50.536Z,68.71
2022-12-25T21:12:53.123Z,68.92
2022-12-25T21:14:58.549Z,68.80
2022-12-25T21:17:01.266Z,68.94
2022-12-25T21:19:03.952Z,68.77
2022-12-25T21:21:09.095Z,68.30
2022-12-25T21:23:11.684Z,68.45
2022-12-25T21:25:14.251Z,68.37
2022-12-25T21:27:17.466Z,68.03
2022-12-25T21:29:22.851Z,68.41
2022-12-25T21:31:26.228Z,68.04
2022-12-25T21:33:46.442Z,67.81
2022-12-25T21:35:49.422Z,68.62
2022-12-25T21:37:53.337Z,68.55
2022-12-25T21:39:55.890Z,68.35
2022-12-25T21:41:59.514Z,68.00
2022-12-25T21:44:02.476Z,68.27
2022-12-25T21:46:06.352Z,67.76
2022-12-25T21:48:08.967Z,68.17
2022-12-25T21:50:30.246Z,67.98
2022-12-25T21:52:36.453Z,67.81
2022-12-25T21:54:40.457Z,68.31
2022-12-25T21:56:45.672Z,67.53
2022-12-25T21:58:48.315Z,67.79
2022-12-25T22:00:50.984Z,67.08
2022-12-25T22:02:53.642Z,67.33
2022-12-25T22:04:56.281Z,67.84
2022-12-25T22:07:16.562Z,67.36
2022-12-25T22:09:19.288Z,68.19
2022-12-25T22:11:42.352Z,68.38
2022-12-25T22:14:02.399Z,68.69
2022-12-25T22:16:23.603Z,68.55
2022-12-25T22:18:43.818Z,68.31
2022-12-25T22:20:46.391Z,68.57
2022-12-25T22:22:49.241Z,69.16
2022-12-25T22:24:53.784Z,69.46
2022-12-25T22:26:57.804Z,69.50
2022-12-25T22:29:00.365Z,68.78
2022-12-25T22:31:04.295Z,68.89
2022-12-25T22:33:06.923Z,69.75
2022-12-25T22:35:10.439Z,69.36
2022-12-25T22:37:15.879Z,69.90
2022-12-25T22:39:18.425Z,69.39
2022-12-25T22:41:21.031Z,69.41
2022-12-25T22:43:43.319Z,69.20
2022-12-25T22:45:47.927Z,69.25
2022-12-25T22:47:50.491Z,69.13
2022-12-25T22:49:53.052Z,69.06
2022-12-25T22:51:55.918Z,69.13
2022-12-25T22:54:03.624Z,69.26
2022-12-25T22:56:09.313Z,69.83
2022-12-25T22:58:13.554Z,69.99
2022-12-25T23:00:17.647Z,69.80
2022-12-25T23:02:20.604Z,69.02
2022-12-25T23:04:23.905Z,69.61
2022-12-25T23:06:26.452Z,68.62
2022-12-25T23:08:29.400Z,69.30
2022-12-25T23:10:31.973Z,68.57
2022-12-25T23:12:52.065Z,68.42
2022-12-25T23:14:54.821Z,68.69
2022-12-25T23:16:59.743Z,68.76
2022-12-25T23:19:20.326Z,69.14
2022-12-25T23:21:40.143Z,69.52
2022-12-25T23:24:00.126Z,69.35
2022-12-25T23:26:09.354Z,69.48
2022-12-25T23:28:12.217Z,69.37
2022-12-25T23:30:16.411Z,69.52
2022-12-25T23:32:22.627Z,70.08
2022-12-25T23:34:25.311Z,70.40
2022-12-25T23:36:28.006Z,70.58
2022-12-25T23:38:30.578Z,70.15
2022-12-25T23:40:33.151Z,70.56
2022-12-25T23:42:35.727Z,70.19
2022-12-25T23:44:38.397Z,70.20
2022-12-25T23:46:42.192Z,70.41
2022-12-25T23:48:57.508Z,70.38
2022-12-25T23:51:03.368Z,70.61
2022-12-25T23:53:05.979Z,70.95
2022-12-25T23:55:09.832Z,70.59
2022-12-25T23:57:12.497Z,70.73
2022-12-25T23:59:15.093Z,71.17
